sensor_id;sensor_type;location;lat;lon;timestamp;P1;durP1;ratioP1;P2;durP2;ratioP2
43114;SDS011;28727;50.068;14.452;2024-03-06T00:00:17;51.58;;;29.38;;
43114;SDS011;28727;50.068;14.452;2024-03-06T00:02:49;52.45;;;29.65;;
43114;SDS011;28727;50.068;14.452;2024-03-06T00:05:21;49.80;;;29.10;;
43114;SDS011;28727;50.068;14.452;2024-03-06T00:07:53;54.55;;;28.45;;
43114;SDS011;28727;50.068;14.452;2024-03-06T00:10:25;47.85;;;28.00;;
43114;SDS011;28727;50.068;14.452;2024-03-06T00:12:57;51.80;;;28.45;;
43114;SDS011;28727;50.068;14.452;2024-03-06T00:15:29;49.85;;;28.38;;
43114;SDS011;28727;50.068;14.452;2024-03-06T00:18:01;48.72;;;28.27;;
43114;SDS011;28727;50.068;14.452;2024-03-06T00:20:33;51.80;;;28.95;;
43114;SDS011;28727;50.068;14.452;2024-03-06T00:23:05;48.78;;;29.42;;
43114;SDS011;28727;50.068;14.452;2024-03-06T00:25:37;49.53;;;28.58;;
43114;SDS011;28727;50.068;14.452;2024-03-06T00:28:09;52.25;;;29.60;;
43114;SDS011;28727;50.068;14.452;2024-03-06T00:30:41;52.30;;;29.50;;
43114;SDS011;28727;50.068;14.452;2024-03-06T00:33:14;53.60;;;31.20;;
43114;SDS011;28727;50.068;14.452;2024-03-06T00:35:46;52.47;;;30.00;;
43114;SDS011;28727;50.068;14.452;2024-03-06T00:38:18;57.50;;;29.88;;
43114;SDS011;28727;50.068;14.452;2024-03-06T00:40:50;53.28;;;29.70;;
43114;SDS011;28727;50.068;14.452;2024-03-06T00:43:25;50.47;;;29.58;;
43114;SDS011;28727;50.068;14.452;2024-03-06T00:45:57;54.30;;;29.45;;
43114;SDS011;28727;50.068;14.452;2024-03-06T00:48:31;57.22;;;30.15;;
43114;SDS011;28727;50.068;14.452;2024-03-06T00:51:03;50.58;;;30.02;;
43114;SDS011;28727;50.068;14.452;2024-03-06T00:53:35;55.25;;;29.63;;
43114;SDS011;28727;50.068;14.452;2024-03-06T00:56:07;51.33;;;30.67;;
43114;SDS011;28727;50.068;14.452;2024-03-06T00:58:39;48.72;;;29.15;;
43114;SDS011;28727;50.068;14.452;2024-03-06T01:01:11;51.60;;;31.00;;
43114;SDS011;28727;50.068;14.452;2024-03-06T01:03:43;51.80;;;29.90;;
43114;SDS011;28727;50.068;14.452;2024-03-06T01:06:15;49.42;;;28.65;;
43114;SDS011;28727;50.068;14.452;2024-03-06T01:08:47;49.00;;;29.10;;
43114;SDS011;28727;50.068;14.452;2024-03-06T01:11:19;48.75;;;28.88;;
43114;SDS011;28727;50.068;14.452;2024-03-06T01:13:51;53.95;;;28.90;;
43114;SDS011;28727;50.068;14.452;2024-03-06T01:16:23;45.25;;;27.45;;
43114;SDS011;28727;50.068;14.452;2024-03-06T01:18:55;49.25;;;29.30;;
43114;SDS011;28727;50.068;14.452;2024-03-06T01:21:27;48.78;;;28.30;;
43114;SDS011;28727;50.068;14.452;2024-03-06T01:24:01;52.90;;;28.15;;
43114;SDS011;28727;50.068;14.452;2024-03-06T01:26:33;50.28;;;28.65;;
43114;SDS011;28727;50.068;14.452;2024-03-06T01:29:05;51.35;;;27.92;;
43114;SDS011;28727;50.068;14.452;2024-03-06T01:31:37;55.33;;;29.73;;
43114;SDS011;28727;50.068;14.452;2024-03-06T01:34:08;49.90;;;29.55;;
43114;SDS011;28727;50.068;14.452;2024-03-06T01:36:41;50.95;;;29.08;;
43114;SDS011;28727;50.068;14.452;2024-03-06T01:39:13;49.72;;;28.77;;
43114;SDS011;28727;50.068;14.452;2024-03-06T01:41:46;51.13;;;29.05;;
43114;SDS011;28727;50.068;14.452;2024-03-06T01:44:18;52.53;;;28.88;;
43114;SDS011;28727;50.068;14.452;2024-03-06T01:46:51;48.08;;;27.35;;
43114;SDS011;28727;50.068;14.452;2024-03-06T01:49:23;49.40;;;28.50;;
43114;SDS011;28727;50.068;14.452;2024-03-06T01:52:11;50.80;;;30.15;;
43114;SDS011;28727;50.068;14.452;2024-03-06T01:54:47;51.72;;;29.38;;
43114;SDS011;28727;50.068;14.452;2024-03-06T01:57:19;50.92;;;29.05;;
43114;SDS011;28727;50.068;14.452;2024-03-06T01:59:51;51.22;;;30.00;;
43114;SDS011;28727;50.068;14.452;2024-03-06T02:02:26;58.53;;;32.58;;
43114;SDS011;28727;50.068;14.452;2024-03-06T02:04:58;52.55;;;30.15;;
43114;SDS011;28727;50.068;14.452;2024-03-06T02:07:32;50.75;;;29.10;;
43114;SDS011;28727;50.068;14.452;2024-03-06T02:10:05;51.30;;;30.23;;
43114;SDS011;28727;50.068;14.452;2024-03-06T02:12:38;52.38;;;30.80;;
43114;SDS011;28727;50.068;14.452;2024-03-06T02:15:13;55.40;;;29.90;;
43114;SDS011;28727;50.068;14.452;2024-03-06T02:17:45;50.65;;;30.08;;
43114;SDS011;28727;50.068;14.452;2024-03-06T02:20:20;48.55;;;28.65;;
43114;SDS011;28727;50.068;14.452;2024-03-06T02:22:56;53.95;;;30.35;;
43114;SDS011;28727;50.068;14.452;2024-03-06T02:25:28;56.97;;;30.77;;
43114;SDS011;28727;50.068;14.452;2024-03-06T02:28:00;51.92;;;29.42;;
43114;SDS011;28727;50.068;14.452;2024-03-06T02:30:32;55.22;;;31.70;;
43114;SDS011;28727;50.068;14.452;2024-03-06T02:33:08;50.45;;;30.52;;
43114;SDS011;28727;50.068;14.452;2024-03-06T02:35:41;54.00;;;30.65;;
43114;SDS011;28727;50.068;14.452;2024-03-06T02:38:13;51.60;;;29.70;;
43114;SDS011;28727;50.068;14.452;2024-03-06T02:40:45;53.42;;;30.20;;
43114;SDS011;28727;50.068;14.452;2024-03-06T02:43:20;49.58;;;29.67;;
43114;SDS011;28727;50.068;14.452;2024-03-06T02:45:55;53.35;;;28.83;;
43114;SDS011;28727;50.068;14.452;2024-03-06T02:48:27;54.67;;;28.75;;
43114;SDS011;28727;50.068;14.452;2024-03-06T02:50:59;52.67;;;28.83;;
43114;SDS011;28727;50.068;14.452;2024-03-06T02:53:33;46.35;;;27.50;;
43114;SDS011;28727;50.068;14.452;2024-03-06T02:56:05;48.67;;;27.80;;
43114;SDS011;28727;50.068;14.452;2024-03-06T02:58:38;49.83;;;29.27;;
43114;SDS011;28727;50.068;14.452;2024-03-06T03:01:10;51.22;;;29.33;;
43114;SDS011;28727;50.068;14.452;2024-03-06T03:03:43;52.85;;;28.25;;
43114;SDS011;28727;50.068;14.452;2024-03-06T03:06:17;48.47;;;27.92;;
43114;SDS011;28727;50.068;14.452;2024-03-06T03:08:49;53.70;;;29.20;;
43114;SDS011;28727;50.068;14.452;2024-03-06T03:11:21;53.97;;;30.45;;
43114;SDS011;28727;50.068;14.452;2024-03-06T03:13:53;48.85;;;27.83;;
43114;SDS011;28727;50.068;14.452;2024-03-06T03:16:24;49.33;;;27.88;;
43114;SDS011;28727;50.068;14.452;2024-03-06T03:18:56;51.10;;;29.08;;
43114;SDS011;28727;50.068;14.452;2024-03-06T03:21:28;49.20;;;27.33;;
43114;SDS011;28727;50.068;14.452;2024-03-06T03:24:00;50.65;;;28.95;;
43114;SDS011;28727;50.068;14.452;2024-03-06T03:26:32;46.03;;;26.95;;
43114;SDS011;28727;50.068;14.452;2024-03-06T03:29:04;46.50;;;27.75;;
43114;SDS011;28727;50.068;14.452;2024-03-06T03:31:36;48.47;;;27.50;;
43114;SDS011;28727;50.068;14.452;2024-03-06T03:34:12;44.60;;;26.75;;
43114;SDS011;28727;50.068;14.452;2024-03-06T03:36:44;43.13;;;26.92;;
43114;SDS011;28727;50.068;14.452;2024-03-06T03:39:17;48.10;;;27.52;;
43114;SDS011;28727;50.068;14.452;2024-03-06T03:41:49;48.25;;;28.48;;
43114;SDS011;28727;50.068;14.452;2024-03-06T03:44:21;48.95;;;27.88;;
43114;SDS011;28727;50.068;14.452;2024-03-06T03:46:56;50.08;;;27.63;;
43114;SDS011;28727;50.068;14.452;2024-03-06T03:49:31;48.97;;;27.52;;
43114;SDS011;28727;50.068;14.452;2024-03-06T03:52:03;48.45;;;28.65;;
43114;SDS011;28727;50.068;14.452;2024-03-06T03:54:35;47.65;;;27.25;;
43114;SDS011;28727;50.068;14.452;2024-03-06T03:57:07;47.45;;;26.02;;
43114;SDS011;28727;50.068;14.452;2024-03-06T03:59:39;46.35;;;27.25;;
43114;SDS011;28727;50.068;14.452;2024-03-06T04:02:15;48.10;;;27.00;;
43114;SDS011;28727;50.068;14.452;2024-03-06T04:07:19;45.88;;;26.73;;
43114;SDS011;28727;50.068;14.452;2024-03-06T04:09:51;47.85;;;27.23;;
43114;SDS011;28727;50.068;14.452;2024-03-06T04:12:22;46.35;;;27.95;;
43114;SDS011;28727;50.068;14.452;2024-03-06T04:14:57;50.22;;;28.55;;
43114;SDS011;28727;50.068;14.452;2024-03-06T04:17:29;54.17;;;28.83;;
43114;SDS011;28727;50.068;14.452;2024-03-06T04:20:01;52.22;;;28.92;;
43114;SDS011;28727;50.068;14.452;2024-03-06T04:22:35;50.63;;;28.65;;
43114;SDS011;28727;50.068;14.452;2024-03-06T04:25:07;54.60;;;31.35;;
43114;SDS011;28727;50.068;14.452;2024-03-06T04:27:39;50.72;;;29.17;;
43114;SDS011;28727;50.068;14.452;2024-03-06T04:30:11;54.53;;;28.70;;
43114;SDS011;28727;50.068;14.452;2024-03-06T04:32:43;49.83;;;29.05;;
43114;SDS011;28727;50.068;14.452;2024-03-06T04:35:16;52.53;;;31.00;;
43114;SDS011;28727;50.068;14.452;2024-03-06T04:37:48;51.55;;;29.52;;
43114;SDS011;28727;50.068;14.452;2024-03-06T04:40:20;52.33;;;29.58;;
43114;SDS011;28727;50.068;14.452;2024-03-06T04:42:53;51.63;;;29.70;;
43114;SDS011;28727;50.068;14.452;2024-03-06T04:45:25;50.20;;;29.70;;
43114;SDS011;28727;50.068;14.452;2024-03-06T04:47:57;52.88;;;29.77;;
43114;SDS011;28727;50.068;14.452;2024-03-06T04:50:30;52.42;;;29.98;;
43114;SDS011;28727;50.068;14.452;2024-03-06T04:53:01;52.88;;;29.95;;
43114;SDS011;28727;50.068;14.452;2024-03-06T04:55:33;57.53;;;30.77;;
43114;SDS011;28727;50.068;14.452;2024-03-06T04:58:08;55.70;;;30.80;;
43114;SDS011;28727;50.068;14.452;2024-03-06T05:00:41;55.70;;;31.40;;
43114;SDS011;28727;50.068;14.452;2024-03-06T05:03:13;52.30;;;31.27;;
43114;SDS011;28727;50.068;14.452;2024-03-06T05:06:04;58.47;;;32.03;;
43114;SDS011;28727;50.068;14.452;2024-03-06T05:08:54;59.33;;;31.65;;
43114;SDS011;28727;50.068;14.452;2024-03-06T05:11:46;58.33;;;31.35;;
43114;SDS011;28727;50.068;14.452;2024-03-06T05:14:39;54.15;;;31.33;;
43114;SDS011;28727;50.068;14.452;2024-03-06T05:17:31;53.88;;;31.30;;
43114;SDS011;28727;50.068;14.452;2024-03-06T05:20:20;58.70;;;31.73;;
43114;SDS011;28727;50.068;14.452;2024-03-06T05:23:10;57.92;;;31.98;;
43114;SDS011;28727;50.068;14.452;2024-03-06T05:26:00;60.47;;;33.63;;
43114;SDS011;28727;50.068;14.452;2024-03-06T05:28:49;61.70;;;33.13;;
43114;SDS011;28727;50.068;14.452;2024-03-06T05:31:38;61.88;;;33.33;;
43114;SDS011;28727;50.068;14.452;2024-03-06T05:34:30;56.97;;;32.72;;
43114;SDS011;28727;50.068;14.452;2024-03-06T05:37:20;57.45;;;31.98;;
43114;SDS011;28727;50.068;14.452;2024-03-06T05:40:12;56.15;;;31.88;;
43114;SDS011;28727;50.068;14.452;2024-03-06T05:43:01;58.92;;;32.95;;
43114;SDS011;28727;50.068;14.452;2024-03-06T05:45:51;59.67;;;34.25;;
43114;SDS011;28727;50.068;14.452;2024-03-06T05:48:40;62.13;;;34.00;;
43114;SDS011;28727;50.068;14.452;2024-03-06T05:51:30;64.38;;;34.45;;
43114;SDS011;28727;50.068;14.452;2024-03-06T05:54:19;62.80;;;35.15;;
43114;SDS011;28727;50.068;14.452;2024-03-06T05:57:09;63.42;;;35.17;;
43114;SDS011;28727;50.068;14.452;2024-03-06T05:59:59;63.60;;;35.10;;
43114;SDS011;28727;50.068;14.452;2024-03-06T06:02:41;61.85;;;35.55;;
43114;SDS011;28727;50.068;14.452;2024-03-06T06:05:13;60.83;;;34.28;;
43114;SDS011;28727;50.068;14.452;2024-03-06T06:07:54;60.20;;;35.85;;
43114;SDS011;28727;50.068;14.452;2024-03-06T06:10:29;58.95;;;34.33;;
43114;SDS011;28727;50.068;14.452;2024-03-06T06:13:01;57.35;;;34.00;;
43114;SDS011;28727;50.068;14.452;2024-03-06T06:15:36;60.53;;;35.90;;
43114;SDS011;28727;50.068;14.452;2024-03-06T06:18:08;59.33;;;34.42;;
43114;SDS011;28727;50.068;14.452;2024-03-06T06:20:41;65.72;;;37.50;;
43114;SDS011;28727;50.068;14.452;2024-03-06T06:23:14;61.90;;;35.95;;
43114;SDS011;28727;50.068;14.452;2024-03-06T06:25:47;58.70;;;35.55;;
43114;SDS011;28727;50.068;14.452;2024-03-06T06:28:20;63.60;;;36.22;;
43114;SDS011;28727;50.068;14.452;2024-03-06T06:30:54;57.45;;;33.42;;
43114;SDS011;28727;50.068;14.452;2024-03-06T06:33:26;57.80;;;34.83;;
43114;SDS011;28727;50.068;14.452;2024-03-06T06:35:58;60.38;;;34.65;;
43114;SDS011;28727;50.068;14.452;2024-03-06T06:38:29;58.78;;;34.05;;
43114;SDS011;28727;50.068;14.452;2024-03-06T06:41:02;59.13;;;33.83;;
43114;SDS011;28727;50.068;14.452;2024-03-06T06:43:34;51.88;;;30.33;;
43114;SDS011;28727;50.068;14.452;2024-03-06T06:46:06;57.75;;;33.50;;
43114;SDS011;28727;50.068;14.452;2024-03-06T06:48:37;53.47;;;33.08;;
43114;SDS011;28727;50.068;14.452;2024-03-06T06:51:12;59.83;;;33.55;;
43114;SDS011;28727;50.068;14.452;2024-03-06T06:53:44;58.30;;;32.92;;
43114;SDS011;28727;50.068;14.452;2024-03-06T06:56:16;57.63;;;32.50;;
43114;SDS011;28727;50.068;14.452;2024-03-06T06:58:53;57.90;;;33.55;;
43114;SDS011;28727;50.068;14.452;2024-03-06T07:01:25;59.42;;;34.53;;
43114;SDS011;28727;50.068;14.452;2024-03-06T07:03:58;64.03;;;36.15;;
43114;SDS011;28727;50.068;14.452;2024-03-06T07:06:32;59.95;;;34.08;;
43114;SDS011;28727;50.068;14.452;2024-03-06T07:09:04;53.92;;;33.42;;
43114;SDS011;28727;50.068;14.452;2024-03-06T07:11:37;56.70;;;30.98;;
43114;SDS011;28727;50.068;14.452;2024-03-06T07:14:09;59.30;;;32.15;;
43114;SDS011;28727;50.068;14.452;2024-03-06T07:16:44;56.47;;;31.83;;
43114;SDS011;28727;50.068;14.452;2024-03-06T07:19:16;55.15;;;30.83;;
43114;SDS011;28727;50.068;14.452;2024-03-06T07:21:48;55.03;;;31.67;;
43114;SDS011;28727;50.068;14.452;2024-03-06T07:24:20;55.30;;;30.33;;
43114;SDS011;28727;50.068;14.452;2024-03-06T07:26:58;50.33;;;28.58;;
43114;SDS011;28727;50.068;14.452;2024-03-06T07:29:29;53.05;;;31.15;;
43114;SDS011;28727;50.068;14.452;2024-03-06T07:32:01;58.40;;;31.25;;
43114;SDS011;28727;50.068;14.452;2024-03-06T07:34:33;54.53;;;28.52;;
43114;SDS011;28727;50.068;14.452;2024-03-06T07:37:10;57.33;;;32.85;;
43114;SDS011;28727;50.068;14.452;2024-03-06T07:39:43;51.72;;;30.02;;
43114;SDS011;28727;50.068;14.452;2024-03-06T07:42:15;55.78;;;32.35;;
43114;SDS011;28727;50.068;14.452;2024-03-06T07:44:49;57.10;;;31.40;;
43114;SDS011;28727;50.068;14.452;2024-03-06T07:47:24;60.50;;;32.40;;
43114;SDS011;28727;50.068;14.452;2024-03-06T07:49:56;56.97;;;32.55;;
43114;SDS011;28727;50.068;14.452;2024-03-06T07:52:28;58.28;;;33.03;;
43114;SDS011;28727;50.068;14.452;2024-03-06T07:54:59;53.70;;;30.75;;
43114;SDS011;28727;50.068;14.452;2024-03-06T07:57:34;55.50;;;31.55;;
43114;SDS011;28727;50.068;14.452;2024-03-06T08:00:06;57.65;;;32.33;;
43114;SDS011;28727;50.068;14.452;2024-03-06T08:02:51;52.45;;;31.27;;
43114;SDS011;28727;50.068;14.452;2024-03-06T08:05:24;61.45;;;34.63;;
43114;SDS011;28727;50.068;14.452;2024-03-06T08:07:56;59.63;;;32.92;;
43114;SDS011;28727;50.068;14.452;2024-03-06T08:10:30;55.30;;;32.72;;
43114;SDS011;28727;50.068;14.452;2024-03-06T08:13:03;59.40;;;32.88;;
43114;SDS011;28727;50.068;14.452;2024-03-06T08:15:36;58.30;;;31.35;;
43114;SDS011;28727;50.068;14.452;2024-03-06T08:18:08;54.05;;;32.80;;
43114;SDS011;28727;50.068;14.452;2024-03-06T08:20:40;52.65;;;32.83;;
43114;SDS011;28727;50.068;14.452;2024-03-06T08:23:13;54.83;;;32.35;;
43114;SDS011;28727;50.068;14.452;2024-03-06T08:25:45;58.33;;;32.67;;
43114;SDS011;28727;50.068;14.452;2024-03-06T08:28:18;57.63;;;32.53;;
43114;SDS011;28727;50.068;14.452;2024-03-06T08:30:50;57.75;;;34.33;;
43114;SDS011;28727;50.068;14.452;2024-03-06T08:33:23;54.90;;;32.40;;
43114;SDS011;28727;50.068;14.452;2024-03-06T08:35:56;53.40;;;32.67;;
43114;SDS011;28727;50.068;14.452;2024-03-06T08:41:03;53.08;;;32.38;;
43114;SDS011;28727;50.068;14.452;2024-03-06T08:43:35;54.20;;;32.63;;
43114;SDS011;28727;50.068;14.452;2024-03-06T08:46:06;57.15;;;32.75;;
43114;SDS011;28727;50.068;14.452;2024-03-06T08:48:41;56.83;;;33.70;;
43114;SDS011;28727;50.068;14.452;2024-03-06T08:51:14;53.28;;;32.33;;
43114;SDS011;28727;50.068;14.452;2024-03-06T08:53:45;47.92;;;29.23;;
43114;SDS011;28727;50.068;14.452;2024-03-06T08:56:19;54.20;;;31.20;;
43114;SDS011;28727;50.068;14.452;2024-03-06T08:58:51;47.13;;;27.85;;
43114;SDS011;28727;50.068;14.452;2024-03-06T09:01:23;45.42;;;28.45;;
43114;SDS011;28727;50.068;14.452;2024-03-06T09:03:54;52.30;;;30.20;;
43114;SDS011;28727;50.068;14.452;2024-03-06T09:06:28;47.70;;;31.03;;
43114;SDS011;28727;50.068;14.452;2024-03-06T09:09:01;46.13;;;29.13;;
43114;SDS011;28727;50.068;14.452;2024-03-06T09:11:33;47.25;;;31.20;;
43114;SDS011;28727;50.068;14.452;2024-03-06T09:14:05;42.55;;;29.42;;
43114;SDS011;28727;50.068;14.452;2024-03-06T09:16:37;45.60;;;28.15;;
43114;SDS011;28727;50.068;14.452;2024-03-06T09:19:09;43.95;;;28.00;;
43114;SDS011;28727;50.068;14.452;2024-03-06T09:21:41;40.15;;;28.05;;
43114;SDS011;28727;50.068;14.452;2024-03-06T09:24:12;41.58;;;28.25;;
43114;SDS011;28727;50.068;14.452;2024-03-06T09:26:45;43.42;;;28.45;;
43114;SDS011;28727;50.068;14.452;2024-03-06T09:29:17;46.05;;;27.48;;
43114;SDS011;28727;50.068;14.452;2024-03-06T09:31:49;43.03;;;28.60;;
43114;SDS011;28727;50.068;14.452;2024-03-06T09:34:21;44.83;;;29.00;;
43114;SDS011;28727;50.068;14.452;2024-03-06T09:36:53;45.47;;;28.50;;
43114;SDS011;28727;50.068;14.452;2024-03-06T09:39:24;40.60;;;27.15;;
43114;SDS011;28727;50.068;14.452;2024-03-06T09:41:59;38.17;;;28.38;;
43114;SDS011;28727;50.068;14.452;2024-03-06T09:47:03;42.70;;;27.02;;
43114;SDS011;28727;50.068;14.452;2024-03-06T09:49:37;39.95;;;27.35;;
43114;SDS011;28727;50.068;14.452;2024-03-06T09:52:10;43.65;;;28.63;;
43114;SDS011;28727;50.068;14.452;2024-03-06T09:54:45;44.88;;;29.85;;
43114;SDS011;28727;50.068;14.452;2024-03-06T09:57:18;44.78;;;30.33;;
43114;SDS011;28727;50.068;14.452;2024-03-06T09:59:50;43.80;;;28.73;;
43114;SDS011;28727;50.068;14.452;2024-03-06T10:02:39;44.35;;;30.95;;
43114;SDS011;28727;50.068;14.452;2024-03-06T10:05:22;42.33;;;29.35;;
43114;SDS011;28727;50.068;14.452;2024-03-06T10:07:54;44.15;;;31.80;;
43114;SDS011;28727;50.068;14.452;2024-03-06T10:10:26;46.15;;;31.35;;
43114;SDS011;28727;50.068;14.452;2024-03-06T10:12:58;43.35;;;30.85;;
43114;SDS011;28727;50.068;14.452;2024-03-06T10:15:32;41.83;;;29.33;;
43114;SDS011;28727;50.068;14.452;2024-03-06T10:18:11;46.33;;;31.05;;
43114;SDS011;28727;50.068;14.452;2024-03-06T10:20:45;43.95;;;30.08;;
43114;SDS011;28727;50.068;14.452;2024-03-06T10:23:17;43.85;;;29.48;;
43114;SDS011;28727;50.068;14.452;2024-03-06T10:25:50;48.80;;;30.85;;
43114;SDS011;28727;50.068;14.452;2024-03-06T10:28:25;47.92;;;31.10;;
43114;SDS011;28727;50.068;14.452;2024-03-06T10:31:02;41.00;;;28.67;;
43114;SDS011;28727;50.068;14.452;2024-03-06T10:33:42;40.55;;;29.67;;
43114;SDS011;28727;50.068;14.452;2024-03-06T10:36:14;44.55;;;28.00;;
43114;SDS011;28727;50.068;14.452;2024-03-06T10:38:46;46.78;;;27.77;;
43114;SDS011;28727;50.068;14.452;2024-03-06T10:41:22;45.25;;;28.40;;
43114;SDS011;28727;50.068;14.452;2024-03-06T10:43:57;43.00;;;28.42;;
43114;SDS011;28727;50.068;14.452;2024-03-06T10:46:30;46.55;;;30.05;;
43114;SDS011;28727;50.068;14.452;2024-03-06T10:49:06;42.92;;;28.33;;
43114;SDS011;28727;50.068;14.452;2024-03-06T10:51:41;44.42;;;28.70;;
43114;SDS011;28727;50.068;14.452;2024-03-06T10:54:15;42.95;;;28.52;;
43114;SDS011;28727;50.068;14.452;2024-03-06T10:56:47;41.03;;;27.58;;
43114;SDS011;28727;50.068;14.452;2024-03-06T10:59:19;39.05;;;25.65;;
43114;SDS011;28727;50.068;14.452;2024-03-06T11:01:52;35.90;;;24.15;;
43114;SDS011;28727;50.068;14.452;2024-03-06T11:04:27;40.70;;;27.13;;
43114;SDS011;28727;50.068;14.452;2024-03-06T11:07:01;46.97;;;29.38;;
43114;SDS011;28727;50.068;14.452;2024-03-06T11:09:35;44.80;;;28.58;;
43114;SDS011;28727;50.068;14.452;2024-03-06T11:12:07;44.45;;;29.42;;
43114;SDS011;28727;50.068;14.452;2024-03-06T11:14:39;47.88;;;28.50;;
43114;SDS011;28727;50.068;14.452;2024-03-06T11:17:11;45.42;;;29.23;;
43114;SDS011;28727;50.068;14.452;2024-03-06T11:28:27;45.10;;;26.85;;
43114;SDS011;28727;50.068;14.452;2024-03-06T11:33:35;42.80;;;29.50;;
43114;SDS011;28727;50.068;14.452;2024-03-06T11:36:17;45.53;;;28.08;;
43114;SDS011;28727;50.068;14.452;2024-03-06T11:39:03;45.88;;;29.10;;
43114;SDS011;28727;50.068;14.452;2024-03-06T11:44:22;39.78;;;25.50;;
43114;SDS011;28727;50.068;14.452;2024-03-06T11:46:57;36.47;;;23.70;;
43114;SDS011;28727;50.068;14.452;2024-03-06T11:49:33;40.58;;;26.20;;
43114;SDS011;28727;50.068;14.452;2024-03-06T11:52:09;38.45;;;25.92;;
43114;SDS011;28727;50.068;14.452;2024-03-06T11:54:41;39.28;;;24.55;;
43114;SDS011;28727;50.068;14.452;2024-03-06T11:57:14;36.58;;;25.05;;
43114;SDS011;28727;50.068;14.452;2024-03-06T11:59:47;38.25;;;23.50;;
43114;SDS011;28727;50.068;14.452;2024-03-06T12:02:19;39.47;;;24.90;;
43114;SDS011;28727;50.068;14.452;2024-03-06T12:04:51;39.50;;;24.60;;
43114;SDS011;28727;50.068;14.452;2024-03-06T12:07:25;37.90;;;23.60;;
43114;SDS011;28727;50.068;14.452;2024-03-06T12:09:57;42.40;;;24.27;;
43114;SDS011;28727;50.068;14.452;2024-03-06T12:12:29;34.65;;;22.52;;
43114;SDS011;28727;50.068;14.452;2024-03-06T12:15:03;34.60;;;22.10;;
43114;SDS011;28727;50.068;14.452;2024-03-06T12:17:47;35.13;;;22.85;;
43114;SDS011;28727;50.068;14.452;2024-03-06T12:20:23;35.20;;;23.30;;
43114;SDS011;28727;50.068;14.452;2024-03-06T12:22:56;40.08;;;23.27;;
43114;SDS011;28727;50.068;14.452;2024-03-06T12:25:28;37.20;;;24.45;;
43114;SDS011;28727;50.068;14.452;2024-03-06T12:28:06;39.90;;;23.92;;
43114;SDS011;28727;50.068;14.452;2024-03-06T12:30:42;35.30;;;23.38;;
43114;SDS011;28727;50.068;14.452;2024-03-06T12:33:16;37.97;;;23.25;;
43114;SDS011;28727;50.068;14.452;2024-03-06T12:35:48;37.30;;;23.15;;
43114;SDS011;28727;50.068;14.452;2024-03-06T12:38:32;28.05;;;19.13;;
43114;SDS011;28727;50.068;14.452;2024-03-06T12:41:05;41.60;;;25.77;;
43114;SDS011;28727;50.068;14.452;2024-03-06T12:43:37;36.42;;;22.80;;
43114;SDS011;28727;50.068;14.452;2024-03-06T12:46:18;37.75;;;21.38;;
43114;SDS011;28727;50.068;14.452;2024-03-06T12:48:53;32.20;;;19.90;;
43114;SDS011;28727;50.068;14.452;2024-03-06T12:51:25;30.92;;;18.65;;
43114;SDS011;28727;50.068;14.452;2024-03-06T12:53:57;30.27;;;19.23;;
43114;SDS011;28727;50.068;14.452;2024-03-06T12:56:29;31.60;;;20.08;;
43114;SDS011;28727;50.068;14.452;2024-03-06T12:59:01;29.75;;;19.00;;
43114;SDS011;28727;50.068;14.452;2024-03-06T13:01:33;37.33;;;18.48;;
43114;SDS011;28727;50.068;14.452;2024-03-06T13:04:05;36.63;;;20.33;;
43114;SDS011;28727;50.068;14.452;2024-03-06T13:06:39;30.52;;;18.27;;
43114;SDS011;28727;50.068;14.452;2024-03-06T13:09:14;29.27;;;18.55;;
43114;SDS011;28727;50.068;14.452;2024-03-06T13:11:46;27.05;;;16.75;;
43114;SDS011;28727;50.068;14.452;2024-03-06T13:14:17;24.48;;;15.95;;
43114;SDS011;28727;50.068;14.452;2024-03-06T13:16:50;26.70;;;16.13;;
43114;SDS011;28727;50.068;14.452;2024-03-06T13:19:21;26.45;;;15.73;;
43114;SDS011;28727;50.068;14.452;2024-03-06T13:21:54;25.10;;;16.08;;
43114;SDS011;28727;50.068;14.452;2024-03-06T13:24:30;26.05;;;16.55;;
43114;SDS011;28727;50.068;14.452;2024-03-06T13:27:01;24.92;;;16.67;;
43114;SDS011;28727;50.068;14.452;2024-03-06T13:29:34;24.10;;;16.05;;
43114;SDS011;28727;50.068;14.452;2024-03-06T13:32:06;26.73;;;15.75;;
43114;SDS011;28727;50.068;14.452;2024-03-06T13:34:38;25.65;;;16.77;;
43114;SDS011;28727;50.068;14.452;2024-03-06T13:37:11;31.10;;;18.17;;
43114;SDS011;28727;50.068;14.452;2024-03-06T13:39:43;28.38;;;16.88;;
43114;SDS011;28727;50.068;14.452;2024-03-06T13:42:15;34.10;;;17.90;;
43114;SDS011;28727;50.068;14.452;2024-03-06T13:44:46;29.63;;;18.20;;
43114;SDS011;28727;50.068;14.452;2024-03-06T13:47:19;29.00;;;18.00;;
43114;SDS011;28727;50.068;14.452;2024-03-06T13:49:54;33.03;;;19.85;;
43114;SDS011;28727;50.068;14.452;2024-03-06T13:52:27;35.72;;;20.73;;
43114;SDS011;28727;50.068;14.452;2024-03-06T13:54:59;37.28;;;22.17;;
43114;SDS011;28727;50.068;14.452;2024-03-06T13:57:41;38.15;;;21.83;;
43114;SDS011;28727;50.068;14.452;2024-03-06T14:00:13;36.03;;;22.48;;
43114;SDS011;28727;50.068;14.452;2024-03-06T14:02:49;34.63;;;22.77;;
43114;SDS011;28727;50.068;14.452;2024-03-06T14:05:21;40.30;;;24.00;;
43114;SDS011;28727;50.068;14.452;2024-03-06T14:07:58;37.42;;;23.73;;
43114;SDS011;28727;50.068;14.452;2024-03-06T14:10:32;43.40;;;24.95;;
43114;SDS011;28727;50.068;14.452;2024-03-06T14:13:08;42.00;;;26.80;;
43114;SDS011;28727;50.068;14.452;2024-03-06T14:15:43;47.58;;;27.48;;
43114;SDS011;28727;50.068;14.452;2024-03-06T14:18:16;43.45;;;27.75;;
43114;SDS011;28727;50.068;14.452;2024-03-06T14:20:47;45.10;;;28.40;;
43114;SDS011;28727;50.068;14.452;2024-03-06T14:23:19;39.97;;;24.83;;
43114;SDS011;28727;50.068;14.452;2024-03-06T14:25:52;47.38;;;25.38;;
43114;SDS011;28727;50.068;14.452;2024-03-06T14:28:27;37.67;;;22.23;;
43114;SDS011;28727;50.068;14.452;2024-03-06T14:30:59;38.15;;;22.77;;
43114;SDS011;28727;50.068;14.452;2024-03-06T14:33:31;40.97;;;23.80;;
43114;SDS011;28727;50.068;14.452;2024-03-06T14:36:03;36.53;;;23.23;;
43114;SDS011;28727;50.068;14.452;2024-03-06T14:38:35;37.60;;;21.38;;
43114;SDS011;28727;50.068;14.452;2024-03-06T14:41:07;31.40;;;19.48;;
43114;SDS011;28727;50.068;14.452;2024-03-06T14:43:41;30.52;;;20.05;;
43114;SDS011;28727;50.068;14.452;2024-03-06T14:46:12;32.63;;;16.75;;
43114;SDS011;28727;50.068;14.452;2024-03-06T14:48:47;25.08;;;16.55;;
43114;SDS011;28727;50.068;14.452;2024-03-06T14:51:19;28.30;;;15.73;;
43114;SDS011;28727;50.068;14.452;2024-03-06T14:53:51;23.60;;;14.55;;
43114;SDS011;28727;50.068;14.452;2024-03-06T14:56:22;27.35;;;16.67;;
43114;SDS011;28727;50.068;14.452;2024-03-06T14:58:54;23.63;;;14.60;;
43114;SDS011;28727;50.068;14.452;2024-03-06T15:01:26;25.83;;;14.82;;
43114;SDS011;28727;50.068;14.452;2024-03-06T15:03:58;28.30;;;14.82;;
43114;SDS011;28727;50.068;14.452;2024-03-06T15:06:30;26.38;;;14.00;;
43114;SDS011;28727;50.068;14.452;2024-03-06T15:09:02;24.08;;;14.85;;